createdAt,value
2022-08-17T00:03:06.658Z,97951.20
2022-08-17T00:06:18.593Z,97950.80
2022-08-17T00:09:26.553Z,97952.00
2022-08-17T00:12:44.371Z,97945.60
2022-08-17T00:15:53.873Z,97951.00
2022-08-17T00:19:08.323Z,97950.40
2022-08-17T00:22:33.881Z,97949.80
2022-08-17T00:25:46.189Z,97949.00
2022-08-17T00:28:54.805Z,97944.20
2022-08-17T00:33:12.482Z,97946.40
2022-08-17T00:35:32.917Z,97941.80
2022-08-17T00:38:41.837Z,97944.60
2022-08-17T00:41:49.897Z,97947.80
2022-08-17T00:44:57.802Z,97947.80
2022-08-17T00:48:06.099Z,97947.00
2022-08-17T00:51:39.945Z,97954.00
2022-08-17T00:54:55.242Z,97956.80
2022-08-17T00:58:07.165Z,97953.40
2022-08-17T01:01:21.610Z,97959.00
2022-08-17T01:04:33.101Z,97960.80
2022-08-17T01:07:41.433Z,97959.20
2022-08-17T01:10:59.140Z,97961.40
2022-08-17T01:14:09.548Z,97963.00
2022-08-17T01:17:18.062Z,97964.80
2022-08-17T01:20:25.909Z,97967.60
2022-08-17T01:23:34.470Z,97969.00
2022-08-17T01:26:43.938Z,97966.60
2022-08-17T01:29:59.010Z,97965.40
2022-08-17T01:33:11.429Z,97963.80
2022-08-17T01:36:20.043Z,97958.20
2022-08-17T01:39:37.385Z,97959.40
2022-08-17T01:42:53.253Z,97959.80
2022-08-17T01:46:04.024Z,97958.80
2022-08-17T01:49:13.932Z,97957.40
2022-08-17T01:52:24.293Z,97956.60
2022-08-17T01:55:40.023Z,97959.00
2022-08-17T01:58:48.678Z,97957.80
2022-08-17T02:01:57.245Z,97957.40
2022-08-17T02:05:05.440Z,97958.00
2022-08-17T02:08:20.090Z,97964.40
2022-08-17T02:11:28.493Z,97963.00
2022-08-17T02:14:38.910Z,97961.40
2022-08-17T02:17:46.843Z,97965.60
2022-08-17T02:21:03.287Z,97963.60
2022-08-17T02:24:16.990Z,97958.00
2022-08-17T02:27:25.507Z,97956.60
2022-08-17T02:31:00.363Z,97957.60
2022-08-17T02:34:04.569Z,97950.60
2022-08-17T02:37:13.117Z,97949.60
2022-08-17T02:40:36.152Z,97951.20
2022-08-17T02:43:45.511Z,97951.40
2022-08-17T02:46:53.555Z,97949.00
2022-08-17T02:50:01.462Z,97951.00
2022-08-17T02:53:09.642Z,97950.20
2022-08-17T02:56:17.629Z,97955.60
2022-08-17T02:59:25.573Z,97947.60
2022-08-17T03:02:38.512Z,97951.20
2022-08-17T03:05:48.160Z,97954.60
2022-08-17T03:08:54.831Z,97963.40
2022-08-17T03:12:11.409Z,97958.40
2022-08-17T03:15:23.521Z,97964.00
2022-08-17T03:18:31.648Z,97962.00
2022-08-17T03:21:39.739Z,97966.20
2022-08-17T03:24:47.931Z,97959.00
2022-08-17T03:27:56.822Z,97961.80
2022-08-17T03:31:05.869Z,97963.60
2022-08-17T03:34:14.263Z,97964.40
2022-08-17T03:37:22.219Z,97961.40
2022-08-17T03:40:34.401Z,97960.60
2022-08-17T03:43:59.829Z,97960.00
2022-08-17T03:47:25.859Z,97961.40
2022-08-17T03:50:51.718Z,97963.40
2022-08-17T03:54:18.900Z,97968.60
2022-08-17T03:57:27.252Z,97970.60
2022-08-17T04:00:36.386Z,97966.80
2022-08-17T04:03:48.118Z,97970.60
2022-08-17T04:06:56.012Z,97974.20
2022-08-17T04:10:04.522Z,97975.40
2022-08-17T04:13:12.990Z,97983.40
2022-08-17T04:16:21.084Z,97985.20
2022-08-17T04:19:29.205Z,97985.60
2022-08-17T04:22:37.279Z,97985.40
2022-08-17T04:25:50.197Z,97988.00
2022-08-17T04:28:58.806Z,97992.20
2022-08-17T04:32:09.025Z,97989.80
2022-08-17T04:35:21.363Z,97997.20
2022-08-17T04:38:33.681Z,97996.00
2022-08-17T04:41:58.659Z,98001.60
2022-08-17T04:45:09.900Z,98003.40
2022-08-17T04:48:18.066Z,98001.20
2022-08-17T04:51:29.264Z,97999.80
2022-08-17T04:54:37.417Z,98001.00
2022-08-17T04:57:45.396Z,98001.80
2022-08-17T05:00:53.633Z,98008.80
2022-08-17T05:04:21.343Z,98009.80
2022-08-17T05:07:34.265Z,98008.40
2022-08-17T05:10:45.327Z,98012.20
2022-08-17T05:13:54.254Z,98018.80
2022-08-17T05:17:02.039Z,98018.60
2022-08-17T05:20:17.813Z,98020.40
2022-08-17T05:23:42.031Z,98017.40
2022-08-17T05:26:51.634Z,98018.80
2022-08-17T05:30:00.242Z,98015.20
2022-08-17T05:33:16.754Z,98022.60
2022-08-17T05:36:43.542Z,98017.20
2022-08-17T05:39:52.271Z,98022.80
2022-08-17T05:43:12.281Z,98017.20
2022-08-17T05:46:27.846Z,98024.60
2022-08-17T05:49:35.697Z,98027.00
2022-08-17T05:52:57.305Z,98029.40
2022-08-17T05:56:29.208Z,98036.00
2022-08-17T05:59:54.296Z,98032.00
2022-08-17T06:03:26.791Z,98037.00
2022-08-17T06:06:47.885Z,98036.20
2022-08-17T06:10:05.111Z,98035.80
2022-08-17T06:13:30.387Z,98040.40
2022-08-17T06:16:44.594Z,98039.80
2022-08-17T06:20:00.154Z,98044.00
2022-08-17T06:23:18.617Z,98046.20
2022-08-17T06:26:39.673Z,98047.60
2022-08-17T06:29:59.241Z,98051.20
2022-08-17T06:33:16.126Z,98055.40
2022-08-17T06:36:47.662Z,98053.40
2022-08-17T06:40:16.212Z,98053.80
2022-08-17T06:43:50.078Z,98055.00
2022-08-17T06:47:09.153Z,98057.20
2022-08-17T06:50:26.451Z,98055.20
2022-08-17T06:53:44.939Z,98052.80
2022-08-17T06:57:01.934Z,98055.60
2022-08-17T07:00:17.252Z,98053.60
2022-08-17T07:03:39.388Z,98060.00
2022-08-17T07:06:56.152Z,98058.60
2022-08-17T07:10:07.866Z,98054.60
2022-08-17T07:13:32.364Z,98056.60
2022-08-17T07:16:46.877Z,98064.00
2022-08-17T07:20:05.054Z,98060.20
2022-08-17T07:23:26.790Z,98059.20
2022-08-17T07:26:35.021Z,98065.60
2022-08-17T07:29:50.596Z,98068.00
2022-08-17T07:33:02.964Z,98066.40
2022-08-17T07:36:33.759Z,98069.20
2022-08-17T07:40:14.920Z,98068.40
2022-08-17T07:43:29.435Z,98067.20
2022-08-17T07:47:09.117Z,98065.20
2022-08-17T07:50:33.214Z,98063.80
2022-08-17T07:53:47.793Z,98072.00
2022-08-17T07:56:58.885Z,98075.80
2022-08-17T08:00:29.155Z,98076.20
2022-08-17T08:03:52.400Z,98073.00
2022-08-17T08:07:06.680Z,98067.80
2022-08-17T08:10:29.926Z,98066.00
2022-08-17T08:13:42.939Z,98069.60
2022-08-17T08:17:03.177Z,98072.60
2022-08-17T08:20:37.552Z,98070.00
2022-08-17T08:23:57.571Z,98072.40
2022-08-17T08:27:20.427Z,98071.20
2022-08-17T08:30:28.559Z,98072.80
2022-08-17T08:33:56.992Z,98072.60
2022-08-17T08:37:24.973Z,98069.60
2022-08-17T08:41:00.173Z,98072.00
2022-08-17T08:45:00.663Z,98072.80
2022-08-17T08:48:53.272Z,98066.40
2022-08-17T08:51:55.635Z,98064.60
2022-08-17T08:55:14.633Z,98068.60
2022-08-17T08:58:31.815Z,98065.80
2022-08-17T09:02:04.944Z,98063.20
2022-08-17T09:05:33.106Z,98068.80
2022-08-17T09:09:03.339Z,98069.60
2022-08-17T09:12:23.135Z,98067.60
2022-08-17T09:15:39.848Z,98075.00
2022-08-17T09:19:01.517Z,98075.00
2022-08-17T09:22:31.909Z,98079.60
2022-08-17T09:25:52.692Z,98081.40
2022-08-17T09:29:07.483Z,98076.60
2022-08-17T09:32:25.436Z,98079.80
2022-08-17T09:35:41.799Z,98081.80
2022-08-17T09:39:02.309Z,98081.20
2022-08-17T09:42:22.922Z,98080.00
2022-08-17T09:45:40.153Z,98077.20
2022-08-17T09:48:59.003Z,98070.40
2022-08-17T09:52:13.110Z,98070.00
2022-08-17T09:55:21.750Z,98072.20
2022-08-17T09:58:47.763Z,98069.80
2022-08-17T10:02:21.326Z,98071.80
2022-08-17T10:05:40.074Z,98076.80
2022-08-17T10:08:54.948Z,98076.40
2022-08-17T10:12:20.341Z,98075.20
2022-08-17T10:15:47.291Z,98081.40
2022-08-17T10:19:13.901Z,98072.80
2022-08-17T10:23:04.418Z,98074.40
2022-08-17T10:26:20.185Z,98073.20
2022-08-17T10:29:47.329Z,98077.20
2022-08-17T10:33:03.374Z,98076.00
2022-08-17T10:36:22.964Z,98076.00
2022-08-17T10:39:51.882Z,98070.60
2022-08-17T10:43:11.810Z,98075.80
2022-08-17T10:46:30.919Z,98072.00
2022-08-17T10:49:44.568Z,98084.40
2022-08-17T10:52:53.888Z,98084.20
2022-08-17T10:56:39.191Z,98075.40
2022-08-17T10:59:56.473Z,98068.80
2022-08-17T11:03:16.344Z,98069.60
2022-08-17T11:06:42.611Z,98070.60
2022-08-17T11:10:34.972Z,98069.00
2022-08-17T11:14:06.483Z,98073.60
2022-08-17T11:17:42.902Z,98069.20
2022-08-17T11:21:40.701Z,98064.60
2022-08-17T11:24:51.692Z,98060.20
2022-08-17T11:28:18.091Z,98054.80
2022-08-17T11:31:43.458Z,98059.20
2022-08-17T11:34:51.486Z,98059.00
2022-08-17T11:38:16.708Z,98049.20
2022-08-17T11:41:37.488Z,98054.20
2022-08-17T11:44:57.916Z,98047.20
2022-08-17T11:48:37.082Z,98049.80
2022-08-17T11:52:38.810Z,98043.40
2022-08-17T11:56:10.200Z,98039.40
2022-08-17T12:00:01.070Z,98039.80
2022-08-17T12:03:58.959Z,98034.20
2022-08-17T12:07:18.149Z,98033.60
2022-08-17T12:10:32.128Z,98034.40
2022-08-17T12:13:47.707Z,98028.40
2022-08-17T12:17:07.445Z,98022.20
2022-08-17T12:20:25.817Z,98016.40
2022-08-17T12:23:44.241Z,98012.20
2022-08-17T12:27:00.404Z,98020.00
2022-08-17T12:30:16.640Z,98019.00
2022-08-17T12:33:29.041Z,98021.60
2022-08-17T12:36:41.451Z,98026.80
2022-08-17T12:40:00.858Z,98024.80
2022-08-17T12:43:20.060Z,98015.80
2022-08-17T12:46:28.271Z,98012.60
2022-08-17T12:49:37.506Z,98020.80
2022-08-17T12:52:47.129Z,98013.80
2022-08-17T12:55:57.882Z,98014.60
2022-08-17T12:59:07.347Z,98019.20
2022-08-17T13:02:32.389Z,98020.40
2022-08-17T13:05:46.216Z,98016.40
2022-08-17T13:08:54.067Z,98015.60
2022-08-17T13:12:05.159Z,98010.80
2022-08-17T13:15:26.276Z,98008.00
2022-08-17T13:18:48.487Z,98006.00
2022-08-17T13:22:00.098Z,98007.00
2022-08-17T13:25:16.635Z,98003.60
2022-08-17T13:28:30.609Z,98002.20
2022-08-17T13:31:52.443Z,98002.60
2022-08-17T13:35:39.536Z,98003.40
2022-08-17T13:38:52.187Z,98006.00
2022-08-17T13:42:00.026Z,98004.80
2022-08-17T13:45:39.261Z,97998.00
2022-08-17T13:48:57.897Z,97997.60
2022-08-17T13:52:06.936Z,97998.80
2022-08-17T13:55:23.981Z,98002.40
2022-08-17T13:58:38.821Z,97995.80
2022-08-17T14:01:53.852Z,97998.40
2022-08-17T14:05:06.059Z,97999.60
2022-08-17T14:08:18.264Z,98003.20
2022-08-17T14:11:27.626Z,97999.60
2022-08-17T14:14:36.433Z,97988.80
2022-08-17T14:17:44.592Z,97986.60
2022-08-17T14:20:53.414Z,97984.20
2022-08-17T14:24:02.556Z,97990.00
2022-08-17T14:27:12.107Z,97989.80
2022-08-17T14:30:21.432Z,97994.80
2022-08-17T14:33:30.546Z,97989.60
2022-08-17T14:36:38.749Z,97994.60
2022-08-17T14:39:58.959Z,97992.20
2022-08-17T14:43:07.275Z,98002.00
2022-08-17T14:46:13.651Z,98000.40
2022-08-17T14:49:22.065Z,97989.40
2022-08-17T14:52:30.713Z,97988.80
2022-08-17T14:55:40.833Z,97984.00
2022-08-17T14:58:49.212Z,97982.00
2022-08-17T15:01:57.959Z,97982.20
2022-08-17T15:05:11.695Z,97984.60
2022-08-17T15:08:22.355Z,97990.00
2022-08-17T15:11:32.046Z,97983.40
2022-08-17T15:14:41.005Z,97976.40
2022-08-17T15:17:51.275Z,97978.20
2022-08-17T15:21:01.624Z,97979.40
2022-08-17T15:24:12.021Z,97987.20
2022-08-17T15:27:32.307Z,97992.20
2022-08-17T15:30:43.334Z,97996.60
2022-08-17T15:33:52.084Z,97993.80
2022-08-17T15:37:00.170Z,97994.40
2022-08-17T15:40:11.735Z,98001.80
2022-08-17T15:43:27.611Z,97998.00
2022-08-17T15:46:36.298Z,97994.00
2022-08-17T15:49:46.567Z,97994.60
2022-08-17T15:53:01.074Z,97995.00
2022-08-17T15:56:10.270Z,97995.00
2022-08-17T15:59:18.571Z,97993.00
2022-08-17T16:03:44.412Z,97994.20
2022-08-17T16:06:00.879Z,97996.40
2022-08-17T16:09:08.880Z,97991.60
2022-08-17T16:12:22.087Z,97996.60
2022-08-17T16:15:31.124Z,97994.00
2022-08-17T16:18:41.681Z,97988.60
2022-08-17T16:21:49.650Z,97990.80
2022-08-17T16:28:56.429Z,97990.40
2022-08-17T16:32:15.753Z,97977.00
2022-08-17T16:35:26.676Z,97984.00
2022-08-17T16:38:36.631Z,97978.20
2022-08-17T16:41:45.661Z,97982.40
2022-08-17T16:44:56.016Z,97977.80
2022-08-17T16:48:05.069Z,97981.20
2022-08-17T16:51:14.000Z,97978.60
2022-08-17T16:54:22.600Z,97980.60
2022-08-17T16:57:47.428Z,97979.80
2022-08-17T17:01:12.284Z,97986.80
2022-08-17T17:04:27.988Z,97983.40
2022-08-17T17:08:14.137Z,97985.80
2022-08-17T17:11:36.764Z,97986.40
2022-08-17T17:14:52.215Z,97984.20
2022-08-17T17:18:07.320Z,97986.00
2022-08-17T17:21:26.657Z,97987.40
2022-08-17T17:24:38.513Z,97989.20
2022-08-17T17:27:58.965Z,97994.00
2022-08-17T17:31:14.547Z,97996.80
2022-08-17T17:34:24.505Z,97990.80
2022-08-17T17:37:37.903Z,97994.40
2022-08-17T17:40:51.594Z,97996.40
2022-08-17T17:44:07.806Z,98001.40
2022-08-17T17:47:18.332Z,98002.00
2022-08-17T17:50:38.115Z,98009.20
2022-08-17T17:53:58.596Z,98008.80
2022-08-17T17:57:17.856Z,98009.80
2022-08-17T18:00:32.162Z,98014.60
2022-08-17T18:03:59.306Z,98014.20
2022-08-17T18:07:31.179Z,98021.20
2022-08-17T18:10:54.733Z,98016.60
2022-08-17T18:14:22.672Z,98016.40
2022-08-17T18:17:31.438Z,98023.60
2022-08-17T18:20:53.333Z,98021.60
2022-08-17T18:24:10.714Z,98023.80
2022-08-17T18:27:32.355Z,98025.80
2022-08-17T18:30:40.529Z,98025.60
2022-08-17T18:33:52.923Z,98026.40
2022-08-17T18:37:01.571Z,98029.20
2022-08-17T18:40:38.190Z,98033.00
2022-08-17T18:43:53.829Z,98038.80
2022-08-17T18:47:17.523Z,98040.80
2022-08-17T18:50:35.603Z,98036.40
2022-08-17T18:53:44.581Z,98042.80
2022-08-17T18:56:59.440Z,98046.60
2022-08-17T19:00:18.455Z,98044.00
2022-08-17T19:03:30.013Z,98047.00
2022-08-17T19:06:39.626Z,98043.60
2022-08-17T19:09:54.258Z,98039.20
2022-08-17T19:13:12.832Z,98045.80
2022-08-17T19:16:30.578Z,98047.20
2022-08-17T19:19:51.649Z,98049.40
2022-08-17T19:23:11.769Z,98046.60
2022-08-17T19:26:53.398Z,98050.00
2022-08-17T19:30:06.950Z,98045.80
2022-08-17T19:33:16.254Z,98054.80
2022-08-17T19:36:44.557Z,98053.00
2022-08-17T19:40:08.057Z,98055.00
2022-08-17T19:43:31.404Z,98047.80
2022-08-17T19:46:50.571Z,98049.40
2022-08-17T19:50:13.784Z,98051.60
2022-08-17T19:54:01.639Z,98053.60
2022-08-17T19:57:16.966Z,98048.80
2022-08-17T20:00:25.399Z,98045.40
2022-08-17T20:03:41.847Z,98041.80
2022-08-17T20:06:53.437Z,98049.80
2022-08-17T20:10:12.230Z,98043.20
2022-08-17T20:13:33.474Z,98045.80
2022-08-17T20:16:42.962Z,98044.20
2022-08-17T20:20:00.332Z,98049.20
2022-08-17T20:23:22.940Z,98049.00
2022-08-17T20:26:55.233Z,98043.20
2022-08-17T20:30:37.913Z,98038.40
2022-08-17T20:33:45.808Z,98039.80
2022-08-17T20:37:08.737Z,98039.40
2022-08-17T20:40:26.068Z,98041.80
2022-08-17T20:44:05.605Z,98033.00
2022-08-17T20:47:26.950Z,98038.60
2022-08-17T20:50:42.040Z,98035.60
2022-08-17T20:54:43.198Z,98039.20
2022-08-17T20:57:52.495Z,98035.60
2022-08-17T21:01:14.611Z,98036.40
2022-08-17T21:05:00.671Z,98035.20
2022-08-17T21:08:26.191Z,98033.40
2022-08-17T21:12:03.863Z,98033.00
2022-08-17T21:15:37.534Z,98038.40
2022-08-17T21:18:53.335Z,98034.60
2022-08-17T21:22:18.040Z,98036.60
2022-08-17T21:25:56.539Z,98041.20
2022-08-17T21:29:31.086Z,98038.20
2022-08-17T21:32:44.848Z,98037.20
2022-08-17T21:36:17.377Z,98043.40
2022-08-17T21:39:40.893Z,98046.80
2022-08-17T21:42:55.787Z,98048.60
2022-08-17T21:46:11.586Z,98041.00
2022-08-17T21:49:26.410Z,98042.80
2022-08-17T21:52:34.727Z,98043.60
2022-08-17T21:55:42.739Z,98043.60
2022-08-17T21:58:58.755Z,98044.60
2022-08-17T22:02:17.922Z,98054.60
2022-08-17T22:05:36.589Z,98063.80
2022-08-17T22:08:57.845Z,98061.60
2022-08-17T22:12:11.573Z,98071.00
2022-08-17T22:15:20.741Z,98071.40
2022-08-17T22:18:32.189Z,98066.20
2022-08-17T22:21:40.190Z,98072.80
2022-08-17T22:24:57.978Z,98075.80
2022-08-17T22:28:09.202Z,98077.40
2022-08-17T22:31:20.182Z,98077.00
2022-08-17T22:34:28.284Z,98077.40
2022-08-17T22:37:36.400Z,98079.60
2022-08-17T22:40:45.421Z,98085.00
2022-08-17T22:43:57.595Z,98085.80
2022-08-17T22:47:25.605Z,98088.40
2022-08-17T22:50:35.523Z,98089.00
2022-08-17T22:54:09.852Z,98092.60
2022-08-17T22:57:51.929Z,98088.60
2022-08-17T23:01:20.986Z,98093.00
2022-08-17T23:04:39.513Z,98098.20
2022-08-17T23:07:52.879Z,98101.80
2022-08-17T23:11:01.768Z,98104.80
2022-08-17T23:14:12.565Z,98101.40
2022-08-17T23:17:21.393Z,98106.80
2022-08-17T23:20:29.599Z,98107.80
2022-08-17T23:23:39.483Z,98108.80
2022-08-17T23:26:47.614Z,98098.20
2022-08-17T23:29:55.978Z,98092.80
2022-08-17T23:33:09.199Z,98088.80
2022-08-17T23:36:18.963Z,98086.80
2022-08-17T23:39:28.400Z,98088.80
2022-08-17T23:42:35.795Z,98107.00
2022-08-17T23:45:43.854Z,98108.40
2022-08-17T23:48:54.312Z,98099.60
2022-08-17T23:52:05.904Z,98099.20
2022-08-17T23:55:14.843Z,98098.80
2022-08-17T23:58:22.876Z,98092.00
